To NAV CANADA Home Page Login to a new session Search on AWWS site Disclaimer Vers la page française équivalente Tips FAQ What's new on the site To the Forecasts and Observations / NOTAM section To "File a Flight Plan" website Publications and other links Update of the User's profile FIC Telephone Numbers My Weather Data Folder Route Weather Data Regional Weather Data Local Weather Data To the Forecasts and Observations / NOTAM section
Request Generated 11/13/2018 at 18:04:05 UTC . Weather information available at that time is displayed.

METAR/TAF

EDMONTON INTL/AB    

METAR CYEG 131800Z 21007KT 20SM FEW160 SCT200 BKN240 03/M02 A2997 RMK AC1CI3CI3 AC TR SLP183=
METAR CYEG 131700Z 17005KT 20SM FEW120 FEW160 BKN240 M00/M03 A3000 RMK AC1AC1CI6 AC TR SLP193=
METAR CYEG 131600Z VRB02KT 20SM FEW160 BKN220 M01/M04 A3002 RMK AC1CS6 SLP203=

TAF CYEG 131738Z 1318/1418 17005KT P6SM BKN240
BECMG 1320/1322 23006KT
FM140400 25006KT P6SM BKN100
FM140600 21005KT P6SM BKN060 TEMPO 1406/1412 P6SM -SHRA BKN040
FM141200 25010KT P6SM SCT060
RMK NXT FCST BY 132100Z=
Your time UTC time
Weather data provided by Environment Canada and NAV CANADA